createdAt,value
2019-04-25T00:01:11.565Z,13.50
2019-04-25T00:02:26.448Z,11.77
2019-04-25T00:03:33.297Z,10.53
2019-04-25T00:04:38.730Z,11.73
2019-04-25T00:05:43.567Z,5.17
2019-04-25T00:06:48.083Z,8.70
2019-04-25T00:07:52.474Z,10.70
2019-04-25T00:08:56.876Z,7.43
2019-04-25T00:10:01.616Z,7.37
2019-04-25T00:11:06.712Z,4.53
2019-04-25T00:12:12.155Z,13.87
2019-04-25T00:13:16.760Z,7.50
2019-04-25T00:14:22.631Z,6.53
2019-04-25T00:15:27.611Z,10.03
2019-04-25T00:16:33.602Z,5.43
2019-04-25T00:17:38.649Z,6.30
2019-04-25T00:18:43.138Z,5.43
2019-04-25T00:19:47.544Z,4.60
2019-04-25T00:20:56.356Z,6.07
2019-04-25T00:22:15.612Z,7.77
2019-04-25T00:23:21.620Z,4.07
2019-04-25T00:24:39.739Z,4.00
2019-04-25T00:26:02.217Z,3.90
2019-04-25T00:27:06.626Z,3.97
2019-04-25T00:28:11.715Z,4.57
2019-04-25T00:29:16.496Z,2.67
2019-04-25T00:30:22.639Z,1.53
2019-04-25T00:31:27.167Z,4.17
2019-04-25T00:32:31.649Z,4.67
2019-04-25T00:33:36.118Z,4.00
2019-04-25T00:34:43.214Z,2.20
2019-04-25T00:35:47.388Z,4.53
2019-04-25T00:36:51.886Z,2.00
2019-04-25T00:37:56.259Z,6.13
2019-04-25T00:39:01.963Z,3.70
2019-04-25T00:40:07.299Z,5.10
2019-04-25T00:41:11.792Z,5.57
2019-04-25T00:42:16.314Z,4.17
2019-04-25T00:43:21.494Z,3.10
2019-04-25T00:44:26.036Z,7.20
2019-04-25T00:45:31.706Z,4.17
2019-04-25T00:46:36.318Z,6.67
2019-04-25T00:47:42.430Z,3.77
2019-04-25T00:48:46.766Z,5.97
2019-04-25T00:49:52.431Z,7.27
2019-04-25T00:50:57.674Z,15.20
2019-04-25T00:52:02.133Z,11.07
2019-04-25T00:53:06.631Z,10.27
2019-04-25T00:54:11.886Z,7.93
2019-04-25T00:55:26.209Z,8.03
2019-04-25T00:56:22.452Z,4.27
2019-04-25T00:57:27.447Z,3.60
2019-04-25T00:58:56.995Z,5.80
2019-04-25T01:00:28.114Z,9.73
2019-04-25T01:01:38.846Z,5.17
2019-04-25T01:02:46.040Z,10.83
2019-04-25T01:03:51.808Z,8.70
2019-04-25T01:04:56.675Z,32.53
2019-04-25T01:06:03.428Z,13.60
2019-04-25T01:07:07.399Z,9.50
2019-04-25T01:08:12.075Z,5.70
2019-04-25T01:09:18.039Z,6.97
2019-04-25T01:10:23.122Z,6.03
2019-04-25T01:11:27.684Z,9.67
2019-04-25T01:12:32.315Z,5.40
2019-04-25T01:13:36.824Z,9.87
2019-04-25T01:14:42.018Z,7.27
2019-04-25T01:15:46.799Z,5.13
2019-04-25T01:16:52.991Z,4.17
2019-04-25T01:17:57.516Z,7.47
2019-04-25T01:19:03.462Z,4.10
2019-04-25T01:20:09.820Z,4.00
2019-04-25T01:21:14.333Z,4.67
2019-04-25T01:22:18.847Z,5.20
2019-04-25T01:23:23.730Z,6.37
2019-04-25T01:24:28.553Z,7.50
2019-04-25T01:25:40.379Z,7.93
2019-04-25T01:26:39.156Z,7.23
2019-04-25T01:27:43.918Z,5.93
2019-04-25T01:28:48.362Z,4.97
2019-04-25T01:29:54.179Z,5.33
2019-04-25T01:31:00.685Z,7.83
2019-04-25T01:32:06.448Z,3.87
2019-04-25T01:33:11.251Z,4.07
2019-04-25T01:34:17.441Z,4.53
2019-04-25T01:35:28.105Z,7.67
2019-04-25T01:37:06.816Z,5.73
2019-04-25T01:38:25.884Z,4.13
2019-04-25T01:39:37.379Z,3.87
2019-04-25T01:41:16.201Z,4.37
2019-04-25T01:42:38.899Z,3.57
2019-04-25T01:43:52.775Z,3.90
2019-04-25T01:44:56.888Z,6.13
2019-04-25T01:46:03.403Z,3.77
2019-04-25T01:47:08.163Z,4.50
2019-04-25T01:48:13.650Z,6.43
2019-04-25T01:49:18.405Z,2.93
2019-04-25T01:50:23.322Z,4.03
2019-04-25T01:51:27.914Z,4.90
2019-04-25T01:52:33.475Z,4.87
2019-04-25T01:53:38.309Z,5.07
2019-04-25T01:54:43.769Z,4.90
2019-04-25T01:55:56.163Z,4.10
2019-04-25T01:56:55.919Z,3.03
2019-04-25T01:58:00.715Z,6.47
2019-04-25T01:59:05.543Z,3.63
2019-04-25T02:00:13.806Z,5.33
2019-04-25T02:01:18.331Z,6.90
2019-04-25T02:02:24.366Z,6.33
2019-04-25T02:03:28.812Z,3.73
2019-04-25T02:04:34.168Z,6.27
2019-04-25T02:05:38.826Z,5.30
2019-04-25T02:06:43.575Z,4.70
2019-04-25T02:07:48.141Z,5.73
2019-04-25T02:08:54.872Z,6.73
2019-04-25T02:09:59.438Z,7.87
2019-04-25T02:11:25.658Z,8.63
2019-04-25T02:12:38.940Z,8.00
2019-04-25T02:13:43.831Z,8.77
2019-04-25T02:14:48.482Z,10.27
2019-04-25T02:15:54.726Z,8.83
2019-04-25T02:17:00.233Z,10.67
2019-04-25T02:18:05.254Z,9.13
2019-04-25T02:19:09.864Z,9.97
2019-04-25T02:20:14.586Z,10.03
2019-04-25T02:21:19.143Z,11.70
2019-04-25T02:22:24.319Z,11.20
2019-04-25T02:23:29.067Z,10.90
2019-04-25T02:24:33.939Z,10.63
2019-04-25T02:25:38.528Z,11.07
2019-04-25T02:26:43.768Z,12.23
2019-04-25T02:27:48.476Z,12.40
2019-04-25T02:28:55.146Z,12.03
2019-04-25T02:29:58.949Z,13.03
2019-04-25T02:31:08.407Z,13.63
2019-04-25T02:32:09.790Z,13.93
2019-04-25T02:33:14.614Z,12.67
2019-04-25T02:34:19.128Z,12.60
2019-04-25T02:35:24.637Z,11.43
2019-04-25T02:36:30.017Z,11.57
2019-04-25T02:37:35.148Z,12.67
2019-04-25T02:38:39.711Z,12.07
2019-04-25T02:39:44.889Z,12.03
2019-04-25T02:40:49.960Z,12.40
2019-04-25T02:41:56.140Z,13.20
2019-04-25T02:43:01.997Z,13.40
2019-04-25T02:44:09.890Z,13.87
2019-04-25T02:45:41.655Z,13.27
2019-04-25T02:46:56.182Z,14.10
2019-04-25T02:48:24.184Z,15.00
2019-04-25T02:49:39.417Z,13.33
2019-04-25T02:50:56.412Z,15.30
2019-04-25T02:52:07.802Z,15.47
2019-04-25T02:53:36.515Z,15.13
2019-04-25T02:54:39.448Z,17.90
2019-04-25T02:55:44.616Z,16.43
2019-04-25T02:56:49.198Z,17.30
2019-04-25T02:57:54.272Z,17.20
2019-04-25T02:58:58.907Z,19.80
2019-04-25T03:00:07.340Z,17.07
2019-04-25T03:01:19.423Z,16.97
2019-04-25T03:02:18.625Z,17.40
2019-04-25T03:03:24.569Z,17.40
2019-04-25T03:04:29.280Z,16.17
2019-04-25T03:05:35.417Z,17.77
2019-04-25T03:06:40.127Z,19.10
2019-04-25T03:07:44.841Z,17.37
2019-04-25T03:08:49.312Z,17.73
2019-04-25T03:09:54.833Z,16.97
2019-04-25T03:10:59.850Z,16.57
2019-04-25T03:12:06.538Z,18.67
2019-04-25T03:13:11.993Z,18.83
2019-04-25T03:14:16.892Z,21.60
2019-04-25T03:15:24.395Z,19.17
2019-04-25T03:16:29.234Z,18.93
2019-04-25T03:17:34.328Z,19.73
2019-04-25T03:18:48.316Z,20.27
2019-04-25T03:20:14.901Z,21.60
2019-04-25T03:21:25.390Z,21.90
2019-04-25T03:22:30.626Z,19.73
2019-04-25T03:23:42.410Z,20.17
2019-04-25T03:24:45.964Z,20.47
2019-04-25T03:25:50.662Z,22.63
2019-04-25T03:26:55.238Z,22.70
2019-04-25T03:27:59.859Z,21.23
2019-04-25T03:29:05.235Z,20.30
2019-04-25T03:30:14.098Z,19.67
2019-04-25T03:31:22.477Z,20.77
2019-04-25T03:32:28.012Z,19.23
2019-04-25T03:33:30.221Z,22.73
2019-04-25T03:34:35.284Z,20.83
2019-04-25T03:35:39.903Z,20.13
2019-04-25T03:36:44.561Z,21.90
2019-04-25T03:37:49.084Z,23.03
2019-04-25T03:38:54.165Z,18.87
2019-04-25T03:39:58.935Z,18.43
2019-04-25T03:41:04.843Z,25.87
2019-04-25T03:42:09.923Z,22.87
2019-04-25T03:43:15.003Z,23.37
2019-04-25T03:44:19.546Z,22.87
2019-04-25T03:45:24.080Z,22.77
2019-04-25T03:46:28.589Z,24.60
2019-04-25T03:47:33.292Z,21.57
2019-04-25T03:48:37.867Z,21.10
2019-04-25T03:49:43.433Z,19.63
2019-04-25T03:50:48.054Z,19.87
2019-04-25T03:51:53.830Z,18.57
2019-04-25T03:52:58.535Z,20.67
2019-04-25T03:54:04.753Z,22.70
2019-04-25T03:55:10.197Z,19.90
2019-04-25T03:56:14.759Z,20.57
2019-04-25T03:57:19.199Z,20.87
2019-04-25T03:58:24.002Z,19.93
2019-04-25T03:59:28.456Z,19.30
2019-04-25T04:00:34.221Z,23.30
2019-04-25T04:01:39.223Z,23.60
2019-04-25T04:02:44.378Z,20.67
2019-04-25T04:03:48.946Z,22.30
2019-04-25T04:04:53.874Z,21.83
2019-04-25T04:05:58.327Z,22.60
2019-04-25T04:07:04.428Z,20.77
2019-04-25T04:08:09.760Z,20.40
2019-04-25T04:09:15.146Z,23.50
2019-04-25T04:10:21.211Z,23.37
2019-04-25T04:11:25.802Z,21.00
2019-04-25T04:12:30.302Z,24.13
2019-04-25T04:13:34.651Z,20.63
2019-04-25T04:14:39.050Z,22.33
2019-04-25T04:15:43.609Z,20.27
2019-04-25T04:17:06.689Z,24.30
2019-04-25T04:18:26.916Z,22.30
2019-04-25T04:19:34.562Z,24.00
2019-04-25T04:21:05.350Z,34.37
2019-04-25T04:22:17.811Z,30.47
2019-04-25T04:23:54.196Z,25.60
2019-04-25T04:25:00.545Z,23.67
2019-04-25T04:26:05.518Z,29.60
2019-04-25T04:27:14.503Z,25.77
2019-04-25T04:28:20.166Z,28.37
2019-04-25T04:29:25.560Z,28.87
2019-04-25T04:30:30.358Z,28.57
2019-04-25T04:31:34.865Z,28.80
2019-04-25T04:32:39.217Z,28.80
2019-04-25T04:33:43.654Z,28.77
2019-04-25T04:34:48.112Z,29.50
2019-04-25T04:35:54.338Z,30.57
2019-04-25T04:36:58.945Z,28.23
2019-04-25T04:38:04.266Z,30.47
2019-04-25T04:39:09.051Z,27.77
2019-04-25T04:40:16.240Z,32.90
2019-04-25T04:41:20.813Z,30.40
2019-04-25T04:42:25.206Z,31.27
2019-04-25T04:43:29.688Z,27.57
2019-04-25T04:44:34.417Z,29.50
2019-04-25T04:45:38.966Z,33.00
2019-04-25T04:46:43.961Z,30.47
2019-04-25T04:47:48.702Z,31.03
2019-04-25T04:48:54.065Z,30.47
2019-04-25T04:49:59.325Z,34.87
2019-04-25T04:51:03.841Z,30.57
2019-04-25T04:52:08.326Z,31.17
2019-04-25T04:53:14.972Z,32.60
2019-04-25T04:54:23.048Z,30.90
2019-04-25T04:55:26.343Z,34.70
2019-04-25T04:56:34.060Z,26.37
2019-04-25T04:57:38.331Z,27.97
2019-04-25T04:58:43.183Z,28.70
2019-04-25T04:59:47.922Z,30.20
2019-04-25T05:00:53.686Z,25.67
2019-04-25T05:02:17.436Z,27.93
2019-04-25T05:03:39.964Z,26.47
2019-04-25T05:04:56.891Z,23.33
2019-04-25T05:06:21.488Z,24.37
2019-04-25T05:07:46.322Z,23.97
2019-04-25T05:08:58.641Z,24.17
2019-04-25T05:10:03.398Z,25.93
2019-04-25T05:11:08.702Z,25.40
2019-04-25T05:12:14.947Z,24.03
2019-04-25T05:13:19.785Z,24.33
2019-04-25T05:14:26.543Z,21.67
2019-04-25T05:15:30.523Z,24.17
2019-04-25T05:16:35.022Z,20.37
2019-04-25T05:17:39.599Z,22.57
2019-04-25T05:18:44.068Z,21.13
2019-04-25T05:19:48.454Z,19.90
2019-04-25T05:20:54.265Z,19.67
2019-04-25T05:21:58.831Z,20.40
2019-04-25T05:23:03.311Z,20.87
2019-04-25T05:24:27.780Z,18.70
2019-04-25T05:25:34.503Z,19.97
2019-04-25T05:26:38.934Z,19.30
2019-04-25T05:27:57.684Z,18.67
2019-04-25T05:28:49.887Z,19.40
2019-04-25T05:29:54.250Z,17.50
2019-04-25T05:31:27.013Z,17.60
2019-04-25T05:32:32.256Z,18.13
2019-04-25T05:33:39.358Z,15.60
2019-04-25T05:34:44.097Z,16.27
2019-04-25T05:35:51.346Z,13.70
2019-04-25T05:36:55.861Z,14.33
2019-04-25T05:38:00.215Z,13.67
2019-04-25T05:39:09.995Z,11.27
2019-04-25T05:40:15.819Z,13.97
2019-04-25T05:41:38.780Z,14.63
2019-04-25T05:43:08.176Z,13.70
2019-04-25T05:44:14.906Z,12.27
2019-04-25T05:45:19.960Z,11.87
2019-04-25T05:46:25.427Z,12.23
2019-04-25T05:47:30.680Z,9.63
2019-04-25T05:48:35.056Z,10.10
2019-04-25T05:49:39.688Z,11.37
2019-04-25T05:50:44.109Z,11.13
2019-04-25T05:51:48.604Z,11.50
2019-04-25T05:52:54.143Z,10.73
2019-04-25T05:53:58.843Z,10.63
2019-04-25T05:55:03.954Z,9.60
2019-04-25T05:56:08.513Z,10.17
2019-04-25T05:57:13.762Z,10.70
2019-04-25T05:58:18.602Z,12.67
2019-04-25T05:59:24.866Z,8.03
2019-04-25T06:00:29.320Z,8.10
2019-04-25T06:01:34.304Z,8.03
2019-04-25T06:02:39.791Z,8.37
2019-04-25T06:03:44.215Z,8.67
2019-04-25T06:04:48.711Z,7.50
2019-04-25T06:05:53.439Z,6.70
2019-04-25T06:06:57.975Z,7.57
2019-04-25T06:08:04.152Z,7.57
2019-04-25T06:09:30.860Z,6.37
2019-04-25T06:10:54.190Z,8.37
2019-04-25T06:12:13.468Z,13.70
2019-04-25T06:13:40.338Z,6.67
2019-04-25T06:14:44.743Z,6.43
2019-04-25T06:15:50.930Z,5.63
2019-04-25T06:16:59.122Z,7.37
2019-04-25T06:18:16.584Z,8.07
2019-04-25T06:19:55.339Z,8.40
2019-04-25T06:20:59.732Z,6.37
2019-04-25T06:22:04.988Z,6.40
2019-04-25T06:23:15.780Z,6.80
2019-04-25T06:24:44.429Z,8.77
2019-04-25T06:25:48.843Z,7.73
2019-04-25T06:27:22.080Z,7.83
2019-04-25T06:28:28.292Z,7.17
2019-04-25T06:29:34.700Z,6.13
2019-04-25T06:30:38.983Z,7.27
2019-04-25T06:31:43.910Z,5.90
2019-04-25T06:32:48.542Z,6.57
2019-04-25T06:33:53.914Z,5.93
2019-04-25T06:34:58.423Z,6.80
2019-04-25T06:36:04.178Z,8.07
2019-04-25T06:37:09.219Z,6.73
2019-04-25T06:38:14.798Z,6.70
2019-04-25T06:39:20.307Z,7.13
2019-04-25T06:40:29.435Z,7.80
2019-04-25T06:41:34.326Z,8.27
2019-04-25T06:42:40.299Z,7.30
2019-04-25T06:43:49.250Z,7.97
2019-04-25T06:45:13.513Z,5.93
2019-04-25T06:46:39.788Z,8.37
2019-04-25T06:48:03.967Z,9.20
2019-04-25T06:49:28.006Z,6.17
2019-04-25T06:50:34.117Z,7.47
2019-04-25T06:51:54.576Z,7.67
2019-04-25T06:52:59.240Z,8.90
2019-04-25T06:54:03.731Z,6.03
2019-04-25T06:55:08.356Z,5.50
2019-04-25T06:56:13.679Z,6.67
2019-04-25T06:57:18.315Z,8.57
2019-04-25T06:58:25.607Z,5.53
2019-04-25T06:59:28.919Z,4.53
2019-04-25T07:00:40.771Z,4.03
2019-04-25T07:01:39.485Z,5.97
2019-04-25T07:02:43.825Z,9.20
2019-04-25T07:03:48.447Z,7.23
2019-04-25T07:04:54.023Z,5.67
2019-04-25T07:05:58.616Z,5.33
2019-04-25T07:07:10.482Z,3.97
2019-04-25T07:08:09.095Z,4.07
2019-04-25T07:09:14.641Z,4.27
2019-04-25T07:10:19.303Z,4.43
2019-04-25T07:11:24.921Z,5.50
2019-04-25T07:12:31.749Z,4.13
2019-04-25T07:13:38.731Z,6.13
2019-04-25T07:14:43.874Z,4.73
2019-04-25T07:15:48.520Z,3.57
2019-04-25T07:16:53.475Z,3.43
2019-04-25T07:17:58.019Z,5.43
2019-04-25T07:19:02.544Z,8.37
2019-04-25T07:20:07.167Z,5.13
2019-04-25T07:21:11.631Z,7.90
2019-04-25T07:22:16.103Z,6.17
2019-04-25T07:23:20.652Z,5.43
2019-04-25T07:24:26.916Z,5.50
2019-04-25T07:25:35.310Z,5.27
2019-04-25T07:26:58.363Z,4.60
2019-04-25T07:28:27.138Z,4.73
2019-04-25T07:29:47.308Z,5.80
2019-04-25T07:31:24.157Z,5.03
2019-04-25T07:32:39.282Z,3.83
2019-04-25T07:33:54.098Z,4.87
2019-04-25T07:34:58.545Z,4.17
2019-04-25T07:36:04.222Z,5.13
2019-04-25T07:37:09.068Z,6.20
2019-04-25T07:38:14.131Z,5.03
2019-04-25T07:39:18.706Z,4.57
2019-04-25T07:40:23.717Z,7.13
2019-04-25T07:41:28.267Z,5.13
2019-04-25T07:42:34.234Z,3.73
2019-04-25T07:43:38.697Z,4.53
2019-04-25T07:44:51.659Z,4.30
2019-04-25T07:45:49.860Z,3.60
2019-04-25T07:46:54.420Z,9.33
2019-04-25T07:47:58.855Z,5.43
2019-04-25T07:49:03.514Z,9.10
2019-04-25T07:50:08.482Z,3.90
2019-04-25T07:51:15.898Z,9.50
2019-04-25T07:52:19.028Z,5.17
2019-04-25T07:53:24.012Z,3.90
2019-04-25T07:54:29.573Z,5.17
2019-04-25T07:55:36.355Z,7.13
2019-04-25T07:56:40.264Z,7.73
2019-04-25T07:57:44.805Z,4.23
2019-04-25T07:58:52.561Z,5.33
2019-04-25T07:59:55.398Z,5.53
2019-04-25T08:00:59.884Z,2.83
2019-04-25T08:02:04.344Z,3.60
2019-04-25T08:03:08.848Z,5.90
2019-04-25T08:04:13.756Z,4.07
2019-04-25T08:05:18.429Z,2.17
2019-04-25T08:06:24.253Z,2.47
2019-04-25T08:07:29.652Z,3.03
2019-04-25T08:08:34.984Z,2.33
2019-04-25T08:09:40.007Z,5.73
2019-04-25T08:11:03.854Z,2.50
2019-04-25T08:12:08.630Z,3.33
2019-04-25T08:13:13.357Z,2.40
2019-04-25T08:14:37.454Z,5.13
2019-04-25T08:15:48.795Z,5.27
2019-04-25T08:16:56.002Z,3.53
2019-04-25T08:18:04.077Z,3.67
2019-04-25T08:19:08.669Z,3.57
2019-04-25T08:20:13.533Z,2.40
2019-04-25T08:21:19.537Z,2.43
2019-04-25T08:22:23.958Z,5.80
2019-04-25T08:23:30.822Z,3.03
2019-04-25T08:24:37.112Z,4.40
2019-04-25T08:25:43.345Z,4.40
2019-04-25T08:26:47.944Z,3.83
2019-04-25T08:27:53.554Z,2.47
2019-04-25T08:28:59.034Z,3.33
2019-04-25T08:30:04.337Z,2.60
2019-04-25T08:31:08.933Z,3.30
2019-04-25T08:32:14.262Z,2.47
2019-04-25T08:33:19.031Z,3.63
2019-04-25T08:34:24.300Z,1.80
2019-04-25T08:35:29.957Z,1.87
2019-04-25T08:36:37.052Z,2.30
2019-04-25T08:37:40.546Z,2.43
2019-04-25T08:38:44.899Z,1.90
2019-04-25T08:39:49.455Z,2.13
2019-04-25T08:40:54.352Z,2.50
2019-04-25T08:41:59.898Z,2.93
2019-04-25T08:43:04.490Z,2.90
2019-04-25T08:44:08.890Z,7.30
2019-04-25T08:45:14.557Z,4.57
2019-04-25T08:46:18.954Z,1.77
2019-04-25T08:47:24.293Z,2.07
2019-04-25T08:48:31.335Z,1.80
2019-04-25T08:49:42.665Z,1.77
2019-04-25T08:50:53.654Z,3.13
2019-04-25T08:51:58.713Z,3.00
2019-04-25T08:53:03.952Z,3.20
2019-04-25T08:54:15.438Z,3.90
2019-04-25T08:55:48.175Z,2.40
2019-04-25T08:56:54.348Z,2.17
2019-04-25T08:58:03.763Z,2.50
2019-04-25T08:59:37.340Z,1.80
2019-04-25T09:00:59.087Z,2.50
2019-04-25T09:02:05.645Z,2.17
2019-04-25T09:03:20.698Z,2.77
2019-04-25T09:04:38.918Z,2.13
2019-04-25T09:05:46.754Z,3.00
2019-04-25T09:06:53.475Z,3.87
2019-04-25T09:07:57.634Z,2.80
2019-04-25T09:09:03.726Z,2.90
2019-04-25T09:10:08.520Z,5.03
2019-04-25T09:11:13.466Z,1.83
2019-04-25T09:12:18.046Z,2.67
2019-04-25T09:13:23.510Z,2.40
2019-04-25T09:14:28.059Z,2.53
2019-04-25T09:15:33.734Z,1.87
2019-04-25T09:16:38.620Z,2.73
2019-04-25T09:17:44.453Z,3.07
2019-04-25T09:18:49.235Z,4.07
2019-04-25T09:19:54.236Z,2.50
2019-04-25T09:20:58.818Z,4.90
2019-04-25T09:22:03.797Z,3.57
2019-04-25T09:23:08.229Z,2.33
2019-04-25T09:24:13.391Z,1.80
2019-04-25T09:25:18.458Z,3.43
2019-04-25T09:26:24.113Z,1.70
2019-04-25T09:27:28.757Z,3.10
2019-04-25T09:28:35.062Z,5.07
2019-04-25T09:29:39.313Z,4.20
2019-04-25T09:30:44.846Z,2.40
2019-04-25T09:31:50.084Z,2.30
2019-04-25T09:32:54.549Z,3.20
2019-04-25T09:33:58.992Z,3.00
2019-04-25T09:35:03.897Z,3.00
2019-04-25T09:36:08.494Z,2.90
2019-04-25T09:37:14.239Z,3.43
2019-04-25T09:38:22.111Z,2.50
2019-04-25T09:39:34.689Z,2.10
2019-04-25T09:40:39.578Z,3.70
2019-04-25T09:41:44.986Z,4.67
2019-04-25T09:42:49.541Z,3.97
2019-04-25T09:43:57.503Z,4.07
2019-04-25T09:45:13.352Z,2.17
2019-04-25T09:46:24.255Z,3.33
2019-04-25T09:47:28.798Z,5.37
2019-04-25T09:49:04.627Z,3.70
2019-04-25T09:50:13.963Z,3.20
2019-04-25T09:51:28.903Z,2.47
2019-04-25T09:52:34.023Z,3.87
2019-04-25T09:53:44.772Z,4.40
2019-04-25T09:55:10.611Z,3.93
2019-04-25T09:56:21.921Z,4.47
2019-04-25T09:57:44.884Z,3.87
2019-04-25T09:58:55.961Z,2.93
2019-04-25T10:00:00.484Z,2.97
2019-04-25T10:01:09.872Z,3.23
2019-04-25T10:02:14.514Z,2.83
2019-04-25T10:03:18.976Z,2.80
2019-04-25T10:04:23.475Z,2.77
2019-04-25T10:05:28.131Z,3.73
2019-04-25T10:06:33.286Z,2.60
2019-04-25T10:07:38.499Z,2.27
2019-04-25T10:08:44.765Z,2.73
2019-04-25T10:09:49.252Z,4.23
2019-04-25T10:10:55.382Z,2.40
2019-04-25T10:12:00.114Z,2.83
2019-04-25T10:13:06.482Z,2.77
2019-04-25T10:14:38.923Z,5.00
2019-04-25T10:16:05.599Z,2.70
2019-04-25T10:17:10.195Z,3.57
2019-04-25T10:18:14.707Z,3.87
2019-04-25T10:19:19.252Z,3.43
2019-04-25T10:20:23.705Z,3.73
2019-04-25T10:21:28.479Z,2.67
2019-04-25T10:22:33.939Z,3.00
2019-04-25T10:23:39.841Z,2.57
2019-04-25T10:24:56.509Z,6.33
2019-04-25T10:25:51.719Z,2.10
2019-04-25T10:26:56.179Z,2.20
2019-04-25T10:28:00.839Z,3.57
2019-04-25T10:29:05.759Z,3.07
2019-04-25T10:30:17.769Z,3.07
2019-04-25T10:31:16.519Z,3.80
2019-04-25T10:32:21.043Z,3.47
2019-04-25T10:33:26.896Z,4.63
2019-04-25T10:34:33.247Z,4.93
2019-04-25T10:35:47.908Z,5.37
2019-04-25T10:36:45.335Z,3.13
2019-04-25T10:37:50.375Z,3.07
2019-04-25T10:39:07.504Z,4.80
2019-04-25T10:40:01.011Z,5.10
2019-04-25T10:41:05.540Z,3.90
2019-04-25T10:42:10.637Z,3.90
2019-04-25T10:43:15.266Z,4.60
2019-04-25T10:44:19.701Z,2.67
2019-04-25T10:45:26.001Z,4.73
2019-04-25T10:46:30.406Z,4.13
2019-04-25T10:47:35.292Z,6.60
2019-04-25T10:48:40.090Z,8.00
2019-04-25T10:49:44.989Z,6.90
2019-04-25T10:50:50.643Z,4.83
2019-04-25T10:51:55.133Z,3.63
2019-04-25T10:52:59.864Z,4.13
2019-04-25T10:54:04.313Z,3.23
2019-04-25T10:55:08.823Z,5.10
2019-04-25T10:56:14.193Z,5.63
2019-04-25T10:57:18.944Z,3.97
2019-04-25T10:58:23.332Z,2.40
2019-04-25T10:59:27.814Z,3.33
2019-04-25T11:00:40.765Z,5.07
2019-04-25T11:01:46.371Z,3.60
2019-04-25T11:02:53.818Z,2.50
2019-04-25T11:04:17.464Z,4.57
2019-04-25T11:05:21.949Z,3.33
2019-04-25T11:06:28.720Z,4.73
2019-04-25T11:07:33.967Z,3.93
2019-04-25T11:08:38.514Z,6.20
2019-04-25T11:09:45.000Z,5.70
2019-04-25T11:10:50.010Z,5.40
2019-04-25T11:11:54.683Z,2.73
2019-04-25T11:12:59.232Z,5.20
2019-04-25T11:14:03.861Z,4.77
2019-04-25T11:15:09.323Z,4.27
2019-04-25T11:16:15.780Z,4.77
2019-04-25T11:17:20.292Z,2.70
2019-04-25T11:18:24.915Z,3.30
2019-04-25T11:19:29.468Z,7.27
2019-04-25T11:20:34.053Z,5.70
2019-04-25T11:21:38.665Z,6.63
2019-04-25T11:22:44.754Z,4.23
2019-04-25T11:23:50.098Z,2.77
2019-04-25T11:24:54.744Z,6.97
2019-04-25T11:25:59.251Z,4.83
2019-04-25T11:27:04.307Z,2.13
2019-04-25T11:28:11.443Z,4.05
2019-04-25T11:29:16.900Z,4.50
2019-04-25T11:30:23.211Z,3.08
2019-04-25T11:31:33.733Z,4.50
2019-04-25T11:32:38.209Z,4.10
2019-04-25T11:33:43.959Z,2.95
2019-04-25T11:34:48.588Z,3.08
2019-04-25T11:35:56.156Z,3.90
2019-04-25T11:36:59.669Z,3.00
2019-04-25T11:38:06.621Z,2.75
2019-04-25T11:39:32.426Z,4.92
2019-04-25T11:40:46.568Z,3.08
2019-04-25T11:41:49.459Z,4.22
2019-04-25T11:42:54.572Z,3.80
2019-04-25T11:44:00.520Z,3.50
2019-04-25T11:45:06.964Z,4.10
2019-04-25T11:46:11.363Z,6.78
2019-04-25T11:47:15.906Z,3.40
2019-04-25T11:48:20.406Z,4.85
2019-04-25T11:49:24.876Z,5.80
2019-04-25T11:50:29.683Z,3.60
2019-04-25T11:51:34.182Z,4.12
2019-04-25T11:52:38.704Z,2.50
2019-04-25T11:53:45.047Z,6.95
2019-04-25T11:54:50.047Z,5.53
2019-04-25T11:55:54.835Z,2.42
2019-04-25T11:56:59.240Z,9.30
2019-04-25T11:58:03.776Z,2.87
2019-04-25T11:59:08.222Z,3.00
2019-04-25T12:00:21.949Z,4.58
2019-04-25T12:01:19.495Z,3.70
2019-04-25T12:02:24.437Z,1.85
2019-04-25T12:03:28.860Z,4.78
2019-04-25T12:04:33.397Z,3.70
2019-04-25T12:05:38.019Z,3.75
2019-04-25T12:06:43.132Z,2.55
2019-04-25T12:07:48.512Z,6.28
2019-04-25T12:08:54.218Z,2.75
2019-04-25T12:09:59.200Z,2.65
2019-04-25T12:11:03.714Z,3.77
2019-04-25T12:12:08.160Z,3.55
2019-04-25T12:13:13.314Z,2.60
2019-04-25T12:14:18.856Z,5.90
2019-04-25T12:15:24.083Z,5.55
2019-04-25T12:16:29.055Z,5.45
2019-04-25T12:17:35.172Z,7.40
2019-04-25T12:18:39.700Z,4.62
2019-04-25T12:19:44.087Z,3.98
2019-04-25T12:20:48.741Z,4.75
2019-04-25T12:21:53.825Z,6.10
2019-04-25T12:23:08.422Z,5.28
2019-04-25T12:24:07.651Z,2.50
2019-04-25T12:25:13.434Z,3.80
2019-04-25T12:26:18.544Z,10.08
2019-04-25T12:27:23.032Z,7.33
2019-04-25T12:28:27.484Z,5.37
2019-04-25T12:29:33.562Z,5.97
2019-04-25T12:30:40.421Z,5.45
2019-04-25T12:31:46.365Z,5.45
2019-04-25T12:32:52.288Z,3.98
2019-04-25T12:33:57.673Z,5.28
2019-04-25T12:35:04.102Z,3.98
2019-04-25T12:36:10.247Z,8.38
2019-04-25T12:37:14.737Z,5.15
2019-04-25T12:38:20.426Z,3.30
2019-04-25T12:39:25.069Z,5.42
2019-04-25T12:40:29.434Z,3.75
2019-04-25T12:41:33.887Z,3.20
2019-04-25T12:42:38.282Z,1.75
2019-04-25T12:43:47.275Z,4.20
2019-04-25T12:45:07.281Z,6.95
2019-04-25T12:46:17.029Z,5.62
2019-04-25T12:47:23.978Z,5.08
2019-04-25T12:48:28.683Z,3.52
2019-04-25T12:49:34.503Z,5.72
2019-04-25T12:50:39.379Z,3.77
2019-04-25T12:51:43.926Z,3.62
2019-04-25T12:52:48.661Z,2.62
2019-04-25T12:53:54.704Z,2.58
2019-04-25T12:54:59.563Z,2.92
2019-04-25T12:56:04.364Z,4.17
2019-04-25T12:57:09.502Z,6.22
2019-04-25T12:58:16.534Z,3.52
2019-04-25T12:59:21.004Z,9.83
2019-04-25T13:00:26.660Z,6.90
2019-04-25T13:01:31.088Z,3.85
2019-04-25T13:02:36.449Z,3.77
2019-04-25T13:03:41.163Z,2.05
2019-04-25T13:04:45.730Z,4.03
2019-04-25T13:05:50.645Z,2.98
2019-04-25T13:06:55.938Z,4.50
2019-04-25T13:08:01.120Z,1.82
2019-04-25T13:09:07.178Z,3.50
2019-04-25T13:10:13.133Z,4.22
2019-04-25T13:11:19.015Z,3.77
2019-04-25T13:12:24.017Z,3.67
2019-04-25T13:13:28.451Z,8.38
2019-04-25T13:14:32.870Z,5.20
2019-04-25T13:15:37.348Z,6.08
2019-04-25T13:16:41.936Z,1.57
2019-04-25T13:17:46.470Z,3.30
2019-04-25T13:18:51.330Z,2.62
2019-04-25T13:19:56.681Z,7.83
2019-04-25T13:21:01.229Z,6.95
2019-04-25T13:22:06.172Z,6.08
2019-04-25T13:23:10.661Z,2.85
2019-04-25T13:24:15.196Z,1.25
2019-04-25T13:25:20.955Z,1.42
2019-04-25T13:26:28.659Z,3.58
2019-04-25T13:27:38.675Z,3.27
2019-04-25T13:29:06.794Z,2.95
2019-04-25T13:30:33.924Z,2.08
2019-04-25T13:32:01.052Z,4.40
2019-04-25T13:33:17.616Z,4.17
2019-04-25T13:34:36.475Z,1.82
2019-04-25T13:35:40.518Z,3.52
2019-04-25T13:36:44.973Z,4.55
2019-04-25T13:37:49.430Z,6.58
2019-04-25T13:38:54.108Z,5.03
2019-04-25T13:39:58.496Z,1.37
2019-04-25T13:41:03.861Z,2.77
2019-04-25T13:42:10.232Z,2.83
2019-04-25T13:43:14.580Z,2.02
2019-04-25T13:44:18.987Z,3.35
2019-04-25T13:45:23.506Z,4.03
2019-04-25T13:46:28.069Z,3.25
2019-04-25T13:47:32.579Z,5.30
2019-04-25T13:48:37.121Z,3.70
2019-04-25T13:49:41.529Z,4.05
2019-04-25T13:50:46.012Z,3.08
2019-04-25T13:51:50.427Z,1.77
2019-04-25T13:52:55.202Z,3.47
2019-04-25T13:53:59.863Z,2.02
2019-04-25T13:55:04.315Z,3.00
2019-04-25T13:56:08.917Z,3.85
2019-04-25T13:57:13.619Z,5.55
2019-04-25T13:58:18.430Z,2.58
2019-04-25T13:59:23.515Z,3.58
2019-04-25T14:00:28.381Z,4.40
2019-04-25T14:01:33.917Z,4.12
2019-04-25T14:02:38.614Z,4.70
2019-04-25T14:03:44.411Z,2.90
2019-04-25T14:04:49.149Z,4.03
2019-04-25T14:05:54.020Z,3.08
2019-04-25T14:06:58.597Z,2.00
2019-04-25T14:08:03.133Z,6.62
2019-04-25T14:09:11.189Z,1.92
2019-04-25T14:10:16.115Z,3.72
2019-04-25T14:11:21.495Z,3.22
2019-04-25T14:12:26.884Z,3.20
2019-04-25T14:13:32.573Z,3.80
2019-04-25T14:14:37.111Z,4.00
2019-04-25T14:15:46.611Z,3.15
2019-04-25T14:17:10.395Z,3.47
2019-04-25T14:18:26.990Z,2.80
2019-04-25T14:19:56.641Z,1.95
2019-04-25T14:21:08.221Z,2.40
2019-04-25T14:22:12.562Z,4.37
2019-04-25T14:23:17.169Z,2.55
2019-04-25T14:24:25.728Z,4.30
2019-04-25T14:25:29.774Z,2.70
2019-04-25T14:26:34.357Z,2.08
2019-04-25T14:27:38.713Z,1.95
2019-04-25T14:28:44.277Z,1.90
2019-04-25T14:29:48.884Z,3.20
2019-04-25T14:30:53.296Z,3.00
2019-04-25T14:31:57.796Z,1.95
2019-04-25T14:33:03.601Z,1.15
2019-04-25T14:34:08.184Z,3.95
2019-04-25T14:35:14.369Z,4.92
2019-04-25T14:36:18.922Z,2.05
2019-04-25T14:37:26.332Z,1.72
2019-04-25T14:38:29.926Z,1.87
2019-04-25T14:39:34.733Z,2.37
2019-04-25T14:40:39.243Z,2.15
2019-04-25T14:41:43.692Z,4.78
2019-04-25T14:42:48.203Z,1.52
2019-04-25T14:43:52.690Z,1.82
2019-04-25T14:44:57.243Z,4.05
2019-04-25T14:46:01.996Z,8.45
2019-04-25T14:47:06.487Z,2.65
2019-04-25T14:48:18.777Z,1.87